Time;durP1;ratioP1;P1;durP2;ratioP2;P2;SDS_P1;SDS_P2;PMS_P1;PMS_P2;Temp;Humidity;BMP_temperature;BMP_pressure;BME280_temperature;BME280_humidity;BME280_pressure;Samples;Min_cycle;Max_cycle;Signal;HPM_P1;HPM_P2
2023/01/11 00:01:49;;;;;;;3.53;1.30;;;6.70;1.00;;;;;;5086560;28;20044;-73
2023/01/11 00:04:16;;;;;;;2.50;0.63;;;6.70;1.00;;;;;;5085108;28;20056;-73
2023/01/11 00:06:43;;;;;;;5.25;1.30;;;6.80;1.00;;;;;;5094334;28;20036;-75
2023/01/11 00:09:09;;;;;;;5.00;0.90;;;6.80;1.00;;;;;;5084179;28;20048;-73
2023/01/11 00:11:35;;;;;;;8.90;0.95;;;6.80;1.00;;;;;;5060370;28;20039;-75
2023/01/11 00:14:01;;;;;;;2.60;1.20;;;6.80;1.00;;;;;;5092942;28;20072;-74
2023/01/11 00:16:27;;;;;;;2.20;0.90;;;6.90;1.00;;;;;;5072988;28;20089;-74
2023/01/11 00:18:53;;;;;;;3.63;0.70;;;6.90;1.00;;;;;;5053299;28;20041;-74
2023/01/11 00:21:21;;;;;;;4.65;0.85;;;7.00;1.00;;;;;;5071906;28;20493;-74
2023/01/11 00:23:48;;;;;;;2.53;0.70;;;7.00;1.00;;;;;;5064047;28;20386;-75
2023/01/11 00:26:15;;;;;;;5.80;0.80;;;7.00;1.00;;;;;;5028457;28;20041;-74
2023/01/11 00:28:41;;;;;;;4.97;0.98;;;7.10;1.00;;;;;;5045670;28;20040;-74
2023/01/11 00:31:08;;;;;;;3.50;0.93;;;7.10;1.00;;;;;;5039465;28;20041;-74
2023/01/11 00:33:34;;;;;;;4.63;1.20;;;7.10;1.00;;;;;;5047851;28;20045;-73
2023/01/11 00:36:00;;;;;;;2.78;0.88;;;7.10;1.00;;;;;;5041191;28;20044;-74
2023/01/11 00:49:29;;;;;;;4.18;1.00;;;7.20;1.00;;;;;;5072784;28;20034;-73
2023/01/11 00:51:55;;;;;;;5.47;1.08;;;7.30;1.00;;;;;;5045770;28;20036;-73
2023/01/11 00:54:22;;;;;;;2.47;0.55;;;7.30;1.00;;;;;;5054325;28;20032;-73
2023/01/11 00:56:48;;;;;;;6.70;1.10;;;7.30;1.00;;;;;;5054435;28;20041;-73
2023/01/11 00:59:14;;;;;;;4.32;0.88;;;7.40;1.00;;;;;;5072377;28;20066;-73
2023/01/11 01:01:40;;;;;;;4.03;1.05;;;7.40;1.00;;;;;;5051983;28;20033;-75
2023/01/11 01:04:06;;;;;;;5.97;0.77;;;7.30;1.00;;;;;;5060606;28;20393;-74
2023/01/11 01:06:33;;;;;;;2.50;0.85;;;7.20;1.00;;;;;;5042209;28;20032;-74
2023/01/11 01:08:59;;;;;;;1.40;0.50;;;7.20;1.00;;;;;;5054898;28;20047;-74
2023/01/11 01:11:26;;;;;;;2.05;0.75;;;7.10;1.00;;;;;;5058900;28;20430;-74
2023/01/11 01:16:36;;;;;;;6.43;1.75;;;7.20;1.00;;;;;;5066910;28;20094;-74
2023/01/11 01:19:03;;;;;;;1.50;0.50;;;7.20;1.00;;;;;;5072733;28;20039;-73
2023/01/11 01:21:29;;;;;;;3.53;1.10;;;7.30;1.00;;;;;;5052814;28;20489;-73
2023/01/11 01:23:56;;;;;;;4.50;1.13;;;7.30;1.00;;;;;;5054580;28;20041;-74
2023/01/11 01:26:22;;;;;;;5.68;0.90;;;7.30;1.00;;;;;;5019328;28;20044;-73
2023/01/11 01:28:49;;;;;;;7.40;1.20;;;7.30;1.00;;;;;;5071953;28;20028;-74
2023/01/11 01:31:16;;;;;;;2.55;0.90;;;7.30;1.00;;;;;;5070920;28;20032;-73
2023/01/11 01:33:42;;;;;;;4.50;0.75;;;7.40;1.00;;;;;;5071817;28;20036;-73
2023/01/11 01:36:08;;;;;;;5.20;1.02;;;7.40;1.00;;;;;;5053670;28;20043;-74
2023/01/11 01:38:34;;;;;;;2.47;0.82;;;7.40;1.00;;;;;;5050568;28;20044;-73
2023/01/11 01:41:01;;;;;;;6.30;1.20;;;7.50;1.00;;;;;;5047373;28;20047;-75
2023/01/11 01:43:53;;;;;;;4.80;0.73;;;7.40;1.00;;;;;;5038250;28;20037;-74
2023/01/11 01:46:22;;;;;;;7.47;1.60;;;7.40;1.00;;;;;;5072334;28;20389;-74
2023/01/11 01:49:08;;;;;;;2.42;0.73;;;7.40;1.00;;;;;;5072024;28;20037;-74
2023/01/11 01:51:42;;;;;;;5.28;0.73;;;7.50;1.00;;;;;;5061057;28;20470;-74
2023/01/11 01:54:13;;;;;;;1.38;0.70;;;7.50;1.00;;;;;;5053065;28;20028;-74
2023/01/11 01:56:46;;;;;;;2.05;0.93;;;7.50;1.00;;;;;;5052318;28;20029;-75
2023/01/11 01:59:17;;;;;;;2.95;0.45;;;7.60;1.00;;;;;;5029653;28;20041;-74
2023/01/11 02:01:47;;;;;;;1.52;0.70;;;7.60;1.00;;;;;;5069839;28;20033;-74
2023/01/11 02:04:25;;;;;;;2.35;0.93;;;7.60;1.00;;;;;;5054079;28;20048;-75
2023/01/11 02:07:13;;;;;;;5.25;1.17;;;7.60;1.00;;;;;;5071476;28;20037;-73
2023/01/11 02:09:42;;;;;;;2.70;1.02;;;7.70;1.00;;;;;;5071492;28;20055;-74
2023/01/11 02:12:08;;;;;;;4.72;2.00;;;7.60;1.00;;;;;;5070500;28;20450;-73
2023/01/11 02:14:36;;;;;;;2.90;0.70;;;7.70;1.00;;;;;;5056909;28;20091;-74
2023/01/11 02:17:02;;;;;;;4.63;0.85;;;7.60;1.00;;;;;;5051726;28;20045;-73
2023/01/11 02:19:56;;;;;;;3.70;0.90;;;7.60;1.00;;;;;;5052571;28;20029;-74
2023/01/11 02:22:52;;;;;;;2.58;0.82;;;7.60;1.00;;;;;;5034256;28;20040;-73
2023/01/11 02:25:33;;;;;;;2.05;0.60;;;7.60;1.00;;;;;;5052722;28;20064;-73
2023/01/11 02:28:14;;;;;;;2.28;1.02;;;7.60;1.00;;;;;;5034222;28;20053;-74
2023/01/11 02:30:48;;;;;;;5.90;0.93;;;7.60;1.00;;;;;;5050731;28;20044;-74
2023/01/11 02:33:23;;;;;;;2.83;0.50;;;7.60;1.00;;;;;;5047227;28;20066;-73
2023/01/11 02:36:11;;;;;;;4.10;0.75;;;7.60;1.00;;;;;;5064099;28;20036;-74
2023/01/11 02:39:15;;;;;;;2.72;0.63;;;7.50;1.00;;;;;;5052273;28;20418;-74
2023/01/11 02:45:01;;;;;;;6.10;0.98;;;7.50;1.00;;;;;;5061301;28;20039;-75
2023/01/11 02:48:18;;;;;;;3.28;0.77;;;7.60;1.00;;;;;;5065799;28;20037;-74
2023/01/11 02:51:03;;;;;;;2.58;0.88;;;7.50;1.00;;;;;;5065470;28;20045;-76
2023/01/11 02:53:53;;;;;;;3.95;0.77;;;7.50;1.00;;;;;;5065016;28;20032;-75
2023/01/11 02:56:24;;;;;;;1.73;0.52;;;7.50;1.00;;;;;;5035284;28;20048;-74
2023/01/11 02:58:52;;;;;;;2.33;1.07;;;7.60;1.00;;;;;;5070908;28;20032;-74
2023/01/11 03:01:21;;;;;;;1.92;0.60;;;7.60;1.00;;;;;;5050389;28;20268;-74
2023/01/11 03:03:49;;;;;;;1.80;0.73;;;7.60;1.00;;;;;;5051340;28;20037;-74
2023/01/11 03:06:35;;;;;;;3.00;0.80;;;7.60;1.00;;;;;;5050382;28;20040;-75
2023/01/11 03:09:33;;;;;;;2.33;0.80;;;7.70;1.00;;;;;;5051158;28;20044;-74
2023/01/11 03:15:24;;;;;;;2.75;0.73;;;7.70;1.00;;;;;;5051096;28;20032;-75
2023/01/11 03:18:13;;;;;;;1.98;0.95;;;7.70;1.00;;;;;;5077091;28;20052;-75
2023/01/11 03:20:50;;;;;;;1.98;0.80;;;7.70;1.00;;;;;;5054983;28;20406;-75
2023/01/11 03:23:31;;;;;;;4.25;0.70;;;7.70;1.00;;;;;;5083880;28;20492;-75
2023/01/11 03:25:57;;;;;;;;;;;7.70;1.00;;;;;;5087627;28;20032;-74
2023/01/11 03:28:36;;;;;;;2.08;0.73;;;7.70;1.00;;;;;;5071742;28;19928;-75
2023/01/11 03:31:16;;;;;;;3.97;0.80;;;7.80;1.00;;;;;;5080839;28;20479;-76
2023/01/11 03:33:53;;;;;;;1.60;0.80;;;7.80;1.00;;;;;;5090273;28;20035;-76
2023/01/11 03:36:34;;;;;;;2.42;0.75;;;7.80;1.00;;;;;;5088182;28;20040;-73
2023/01/11 03:39:35;;;;;;;1.42;0.50;;;7.80;1.00;;;;;;5090227;28;20051;-75
2023/01/11 03:42:04;;;;;;;1.65;0.43;;;7.80;1.00;;;;;;5090518;28;20032;-72
2023/01/11 03:44:36;;;;;;;2.50;0.57;;;7.90;1.00;;;;;;5079389;28;20035;-72
2023/01/11 03:47:07;;;;;;;2.20;0.80;;;7.90;1.00;;;;;;5086699;28;20219;-74
2023/01/11 03:49:42;;;;;;;2.80;1.23;;;7.90;1.00;;;;;;5090739;28;20389;-73
2023/01/11 03:52:11;;;;;;;1.67;0.60;;;7.90;1.00;;;;;;5084314;28;20036;-74
2023/01/11 03:54:39;;;;;;;2.63;0.95;;;7.90;1.00;;;;;;5082654;28;20044;-72
2023/01/11 03:57:13;;;;;;;3.25;1.05;;;7.90;1.00;;;;;;5069075;28;20335;-73
2023/01/11 03:59:40;;;;;;;4.30;0.95;;;7.90;1.00;;;;;;5087643;28;20043;-74
2023/01/11 04:02:24;;;;;;;3.58;0.85;;;7.90;1.00;;;;;;5092657;28;20051;-75
2023/01/11 04:04:51;;;;;;;2.88;0.80;;;7.90;1.00;;;;;;5093936;28;20027;-76
2023/01/11 04:07:17;;;;;;;3.78;1.08;;;7.90;1.00;;;;;;5089698;28;20449;-74
2023/01/11 04:09:44;;;;;;;2.55;0.90;;;7.90;1.00;;;;;;5073215;28;20389;-78
2023/01/11 04:12:10;;;;;;;1.95;0.70;;;7.90;1.00;;;;;;5088278;28;20024;-75
2023/01/11 04:14:37;;;;;;;3.00;1.00;;;7.90;1.00;;;;;;5092772;28;20378;-76
2023/01/11 04:17:03;;;;;;;3.83;0.93;;;7.90;1.00;;;;;;5090389;28;20048;-76
2023/01/11 04:19:30;;;;;;;6.22;1.10;;;7.90;1.00;;;;;;5073446;28;20409;-76
2023/01/11 04:21:56;;;;;;;2.40;1.30;;;7.80;1.00;;;;;;5074565;28;20496;-76
2023/01/11 04:24:22;;;;;;;1.95;0.95;;;7.80;1.00;;;;;;5074955;28;20036;-77
2023/01/11 04:26:48;;;;;;;3.67;1.17;;;7.80;1.00;;;;;;5079212;28;20032;-77
2023/01/11 04:29:15;;;;;;;2.95;0.90;;;7.80;1.00;;;;;;5088242;28;20393;-77
2023/01/11 04:31:41;;;;;;;3.15;0.80;;;7.90;1.00;;;;;;5082069;28;20028;-74
2023/01/11 04:34:07;;;;;;;4.70;0.95;;;8.00;1.00;;;;;;5073197;28;20040;-74
2023/01/11 04:36:33;;;;;;;3.92;0.63;;;8.00;1.00;;;;;;5072092;28;20033;-75
2023/01/11 04:38:59;;;;;;;3.35;0.70;;;8.00;1.00;;;;;;5072854;28;20038;-75
2023/01/11 04:44:11;;;;;;;3.63;0.77;;;8.10;1.00;;;;;;5088018;28;20032;-74
2023/01/11 04:46:37;;;;;;;2.33;0.70;;;8.00;1.00;;;;;;5085900;28;20369;-74
2023/01/11 04:49:03;;;;;;;3.92;1.27;;;8.10;1.00;;;;;;5084415;28;20045;-73
2023/01/11 04:51:29;;;;;;;2.28;0.70;;;8.10;1.00;;;;;;5084529;28;20048;-75
2023/01/11 04:53:55;;;;;;;2.63;0.77;;;8.10;1.00;;;;;;5077839;28;20131;-74
2023/01/11 04:56:21;;;;;;;3.33;0.85;;;8.10;1.00;;;;;;5077168;28;20087;-74
2023/01/11 04:58:47;;;;;;;2.45;0.80;;;8.10;1.00;;;;;;5083159;28;20392;-75
2023/01/11 05:01:16;;;;;;;2.38;0.73;;;8.10;1.00;;;;;;5089477;28;20028;-75
2023/01/11 05:03:44;;;;;;;5.65;0.90;;;8.10;1.00;;;;;;5091957;28;20051;-76
2023/01/11 05:06:11;;;;;;;2.58;0.93;;;8.10;1.00;;;;;;5091650;28;20043;-73
2023/01/11 05:08:37;;;;;;;4.68;0.80;;;8.10;1.00;;;;;;5094559;28;20040;-73
2023/01/11 05:11:06;;;;;;;2.53;0.80;;;8.20;1.00;;;;;;5091203;28;20032;-73
2023/01/11 05:13:42;;;;;;;3.42;0.60;;;8.10;1.00;;;;;;5083915;28;20035;-75
2023/01/11 05:16:27;;;;;;;2.38;0.63;;;8.10;1.00;;;;;;5072687;28;20036;-74
2023/01/11 05:18:55;;;;;;;1.80;0.70;;;8.10;1.00;;;;;;5053261;28;20044;-77
2023/01/11 05:21:27;;;;;;;3.72;1.08;;;8.10;1.00;;;;;;5064869;28;20036;-74
2023/01/11 05:23:54;;;;;;;3.15;1.05;;;8.00;1.00;;;;;;5067313;28;20033;-75
2023/01/11 05:26:23;;;;;;;2.70;1.13;;;8.00;1.00;;;;;;5038184;28;20051;-75
2023/01/11 05:28:50;;;;;;;2.78;0.80;;;7.90;1.00;;;;;;5071864;28;20051;-75
2023/01/11 05:31:17;;;;;;;1.48;0.75;;;7.90;1.00;;;;;;5061856;28;20359;-75
2023/01/11 05:33:44;;;;;;;2.63;0.82;;;7.90;1.00;;;;;;5053445;28;20029;-75
2023/01/11 05:36:19;;;;;;;2.25;0.85;;;8.00;1.00;;;;;;5062133;28;20040;-75
2023/01/11 05:38:47;;;;;;;3.10;0.77;;;8.00;1.00;;;;;;5054770;28;20048;-75
2023/01/11 05:41:14;;;;;;;1.80;0.70;;;8.00;1.00;;;;;;5067798;28;20044;-75
2023/01/11 05:46:29;;;;;;;2.35;0.80;;;8.00;4.40;;;;;;5053114;28;20045;-75
2023/01/11 05:48:57;;;;;;;4.20;1.15;;;8.00;5.80;;;;;;5065314;28;20036;-76
2023/01/11 05:51:25;;;;;;;3.88;0.82;;;8.00;7.40;;;;;;5054762;28;20033;-76
2023/01/11 05:53:54;;;;;;;3.58;0.85;;;8.00;8.90;;;;;;5060108;28;20046;-75
2023/01/11 05:56:20;;;;;;;2.78;1.25;;;8.00;10.20;;;;;;5071389;28;20423;-76
2023/01/11 05:58:50;;;;;;;3.75;1.08;;;8.00;13.30;;;;;;5063696;28;20035;-76
2023/01/11 06:01:18;;;;;;;4.85;1.35;;;8.00;13.70;;;;;;5065938;28;20036;-75
2023/01/11 06:03:45;;;;;;;3.08;1.17;;;8.00;14.30;;;;;;5067079;28;20029;-76
2023/01/11 06:06:12;;;;;;;3.03;0.95;;;8.00;16.20;;;;;;5059504;28;20462;-75
2023/01/11 06:08:38;;;;;;;4.60;1.23;;;8.00;17.50;;;;;;5059707;28;20390;-76
2023/01/11 06:11:04;;;;;;;6.10;1.10;;;8.00;19.70;;;;;;5061179;28;20025;-76
2023/01/11 06:13:32;;;;;;;4.70;1.17;;;8.00;21.10;;;;;;5064642;28;20040;-76
2023/01/11 06:16:08;;;;;;;2.22;0.85;;;8.00;21.60;;;;;;5040503;28;20032;-78
2023/01/11 06:18:40;;;;;;;3.10;1.30;;;8.10;22.90;;;;;;5073553;28;20044;-75
2023/01/11 06:21:06;;;;;;;3.17;1.52;;;8.00;24.40;;;;;;5052710;28;20063;-76
2023/01/11 06:23:38;;;;;;;4.78;1.58;;;8.10;25.30;;;;;;5051869;28;20032;-79
2023/01/11 06:26:07;;;;;;;2.83;1.02;;;8.10;26.20;;;;;;5033065;28;20044;-76
2023/01/11 06:28:35;;;;;;;2.58;0.90;;;8.10;26.80;;;;;;5059603;28;20473;-75
2023/01/11 06:31:03;;;;;;;4.65;1.00;;;8.20;24.90;;;;;;5058943;28;20128;-74
2023/01/11 06:33:30;;;;;;;1.85;0.68;;;8.20;23.10;;;;;;5059248;28;20051;-75
2023/01/11 06:35:56;;;;;;;1.25;0.73;;;8.20;22.00;;;;;;5050830;28;20044;-81
2023/01/11 06:38:24;;;;;;;3.90;0.88;;;8.20;21.50;;;;;;5071527;28;20048;-74
2023/01/11 06:41:01;;;;;;;1.67;0.77;;;8.20;20.50;;;;;;5071353;28;20476;-74
2023/01/11 06:43:29;;;;;;;2.20;1.17;;;8.20;19.50;;;;;;5065044;28;20035;-74
2023/01/11 06:45:56;;;;;;;2.38;1.00;;;8.30;19.20;;;;;;5069321;28;20453;-78
2023/01/11 06:48:23;;;;;;;1.27;0.52;;;8.30;18.10;;;;;;5071498;28;20039;-74
2023/01/11 06:50:50;;;;;;;4.43;0.98;;;8.40;14.80;;;;;;5068673;28;20350;-74
2023/01/11 06:53:17;;;;;;;3.65;0.85;;;8.40;11.90;;;;;;5061256;28;20033;-74
2023/01/11 06:55:43;;;;;;;2.35;0.98;;;8.40;9.90;;;;;;5069245;28;20033;-75
2023/01/11 06:58:10;;;;;;;2.22;0.65;;;8.50;8.20;;;;;;5063216;28;20056;-74
2023/01/11 07:00:36;;;;;;;1.48;0.70;;;8.60;3.10;;;;;;5052400;28;20029;-75
2023/01/11 07:03:03;;;;;;;2.67;0.60;;;8.60;1.00;;;;;;5065890;28;20386;-74
2023/01/11 07:05:32;;;;;;;4.20;0.70;;;8.60;1.00;;;;;;5071917;28;20036;-74
2023/01/11 07:07:58;;;;;;;2.83;0.73;;;8.60;1.00;;;;;;5070332;28;20033;-74
2023/01/11 07:10:25;;;;;;;2.33;0.73;;;8.70;1.00;;;;;;5065787;28;20517;-75
2023/01/11 07:12:52;;;;;;;2.30;0.90;;;8.70;1.00;;;;;;5050053;28;20381;-79
2023/01/11 07:15:18;;;;;;;2.38;0.90;;;8.70;1.00;;;;;;5058312;28;20421;-75
2023/01/11 07:17:46;;;;;;;3.00;0.80;;;8.60;1.00;;;;;;5051064;28;20150;-75
2023/01/11 07:20:13;;;;;;;4.55;0.90;;;8.70;1.00;;;;;;5051084;28;20036;-76
2023/01/11 07:22:39;;;;;;;2.30;0.70;;;8.70;1.00;;;;;;5061606;28;20029;-76
2023/01/11 07:25:05;;;;;;;2.25;0.65;;;8.70;1.00;;;;;;5070035;28;20038;-75
2023/01/11 07:27:31;;;;;;;2.20;0.82;;;8.70;1.00;;;;;;5067383;28;20414;-75
2023/01/11 07:29:58;;;;;;;4.55;3.13;;;8.70;1.00;;;;;;5051690;28;20029;-75
2023/01/11 07:32:26;;;;;;;2.28;1.00;;;8.70;1.00;;;;;;5060858;28;20394;-75
2023/01/11 07:34:53;;;;;;;2.63;0.95;;;8.80;1.00;;;;;;5064568;28;20039;-76
2023/01/11 07:37:20;;;;;;;4.78;0.85;;;8.80;1.00;;;;;;5054483;28;20028;-75
2023/01/11 07:39:46;;;;;;;2.40;0.70;;;8.80;1.00;;;;;;5063861;28;20037;-75
2023/01/11 07:44:57;;;;;;;3.40;0.60;;;8.80;1.00;;;;;;5070648;28;20427;-76
2023/01/11 07:47:23;;;;;;;1.88;0.63;;;8.80;1.00;;;;;;5053908;28;20068;-76
2023/01/11 07:49:49;;;;;;;1.15;0.47;;;8.80;1.00;;;;;;5064721;28;20036;-75
2023/01/11 07:52:15;;;;;;;4.50;1.27;;;8.90;1.00;;;;;;5074123;28;20028;-75
2023/01/11 07:54:42;;;;;;;3.40;0.55;;;8.90;1.00;;;;;;5071909;28;20028;-75
2023/01/11 07:57:08;;;;;;;3.00;0.90;;;8.90;1.00;;;;;;5053536;28;20029;-76
2023/01/11 07:59:34;;;;;;;3.00;0.60;;;8.90;1.00;;;;;;5063241;28;20389;-76
2023/01/11 08:02:00;;;;;;;2.20;0.70;;;8.90;1.00;;;;;;5074488;28;20040;-75
2023/01/11 08:04:26;;;;;;;1.30;0.50;;;8.90;1.00;;;;;;5056993;28;20158;-75
2023/01/11 08:06:53;;;;;;;1.50;0.50;;;8.90;1.00;;;;;;5053864;28;20058;-79
2023/01/11 08:09:19;;;;;;;1.63;0.80;;;8.90;1.00;;;;;;5056589;28;20401;-75
2023/01/11 08:14:39;;;;;;;3.05;1.50;;;8.80;1.00;;;;;;5063645;28;20390;-75
2023/01/11 08:17:09;;;;;;;3.20;2.42;;;8.90;1.00;;;;;;5062853;28;20045;-75
2023/01/11 08:19:36;;;;;;;3.38;2.75;;;8.90;1.00;;;;;;5070865;28;20033;-75
2023/01/11 08:22:02;;;;;;;2.95;2.45;;;8.90;1.60;;;;;;5073447;28;20050;-77
2023/01/11 08:24:29;;;;;;;2.70;1.70;;;8.80;3.50;;;;;;5071907;28;20028;-76
2023/01/11 08:26:55;;;;;;;4.05;1.50;;;8.90;4.00;;;;;;5052917;28;20454;-75
2023/01/11 08:29:22;;;;;;;2.17;1.10;;;8.90;4.10;;;;;;5067614;28;20035;-75
2023/01/11 08:31:48;;;;;;;2.00;0.60;;;8.90;4.70;;;;;;5054732;28;20033;-75
2023/01/11 08:34:15;;;;;;;4.68;0.50;;;8.90;4.90;;;;;;5067223;28;20028;-75
2023/01/11 08:36:41;;;;;;;1.40;0.70;;;9.00;7.30;;;;;;5067356;28;20040;-77
2023/01/11 08:39:08;;;;;;;1.42;0.60;;;9.00;7.70;;;;;;5072964;28;20039;-78
2023/01/11 08:41:34;;;;;;;2.35;0.68;;;9.00;11.40;;;;;;5073542;28;20039;-77
2023/01/11 08:44:00;;;;;;;1.25;0.93;;;8.90;15.30;;;;;;5066716;28;20343;-82
2023/01/11 08:46:26;;;;;;;4.43;0.80;;;9.00;19.90;;;;;;5051885;28;20139;-79
2023/01/11 08:48:52;;;;;;;1.27;0.60;;;9.00;23.00;;;;;;5067396;28;20047;-79
2023/01/11 08:51:19;;;;;;;1.05;0.60;;;8.90;23.90;;;;;;5055142;28;20041;-77
2023/01/11 08:53:45;;;;;;;1.05;0.50;;;8.90;24.40;;;;;;5055596;28;20044;-77
2023/01/11 08:56:11;;;;;;;1.42;0.65;;;9.00;23.90;;;;;;5071911;28;20035;-78
2023/01/11 08:58:37;;;;;;;2.05;0.57;;;9.00;24.90;;;;;;5043835;28;20136;-77
2023/01/11 09:01:07;;;;;;;2.17;0.85;;;9.00;24.90;;;;;;5053671;28;20025;-78
2023/01/11 09:03:34;;;;;;;1.38;0.57;;;9.00;25.30;;;;;;5035938;28;20140;-78
2023/01/11 09:06:01;;;;;;;1.55;0.63;;;9.00;25.50;;;;;;5046027;28;20335;-77
2023/01/11 09:08:27;;;;;;;1.40;0.90;;;9.00;25.60;;;;;;5056322;28;20037;-78
2023/01/11 09:10:55;;;;;;;0.80;0.40;;;9.00;25.90;;;;;;5070031;28;20032;-77
2023/01/11 09:13:22;;;;;;;0.80;0.35;;;9.10;24.80;;;;;;5072869;28;20037;-80
2023/01/11 09:15:48;;;;;;;1.95;0.65;;;9.10;23.00;;;;;;5071966;28;20032;-80
2023/01/11 09:18:14;;;;;;;1.70;0.50;;;9.20;20.40;;;;;;5088875;28;20118;-81
2023/01/11 09:20:40;;;;;;;1.85;0.52;;;9.20;19.80;;;;;;5091767;28;20048;-80
2023/01/11 09:23:06;;;;;;;0.90;0.40;;;9.10;19.60;;;;;;5084836;28;20029;-81
2023/01/11 09:25:33;;;;;;;1.63;0.68;;;9.20;19.20;;;;;;5074972;28;20477;-82
2023/01/11 09:27:59;;;;;;;2.22;0.50;;;9.20;20.00;;;;;;5096968;28;20024;-81
2023/01/11 09:30:25;;;;;;;1.20;0.40;;;9.20;19.90;;;;;;5098435;28;20033;-81
2023/01/11 09:32:51;;;;;;;1.00;0.40;;;9.20;19.20;;;;;;5084239;28;20038;-77
2023/01/11 09:35:18;;;;;;;1.67;0.60;;;9.20;17.70;;;;;;5076431;28;20040;-79
2023/01/11 09:37:48;;;;;;;2.25;0.70;;;9.30;16.70;;;;;;5074595;28;20028;-76
2023/01/11 09:40:21;;;;;;;2.07;0.60;;;9.40;15.00;;;;;;5071475;28;20063;-76
2023/01/11 09:42:51;;;;;;;2.17;0.63;;;9.40;14.50;;;;;;5091581;28;20290;-77
2023/01/11 09:45:30;;;;;;;2.20;0.67;;;9.40;14.10;;;;;;5092539;28;20028;-76
2023/01/11 09:48:16;;;;;;;1.38;0.45;;;9.40;14.10;;;;;;5091284;28;20043;-80
2023/01/11 09:50:46;;;;;;;3.25;0.70;;;9.40;16.10;;;;;;5092612;28;20040;-77
2023/01/11 09:53:30;;;;;;;1.35;0.40;;;9.40;17.90;;;;;;5088818;28;20036;-77
2023/01/11 09:55:59;;;;;;;1.17;0.55;;;9.40;20.00;;;;;;5070379;28;20041;-81
2023/01/11 09:58:41;;;;;;;7.35;0.70;;;9.40;23.00;;;;;;5086151;28;20029;-76
2023/01/11 10:01:26;;;;;;;2.63;0.88;;;9.40;26.70;;;;;;5092143;28;20392;-85
2023/01/11 10:04:25;;;;;;;0.88;0.68;;;9.40;32.40;;;;;;5092787;28;20043;-78
2023/01/11 10:06:51;;;;;;;3.08;1.45;;;9.30;37.80;;;;;;5055304;28;20051;-81
2023/01/11 10:09:55;;;;;;;2.83;0.60;;;9.30;42.10;;;;;;5084915;28;20396;-82
2023/01/11 10:12:48;;;;;;;1.23;0.60;;;9.40;45.20;;;;;;5074074;28;20048;-82
2023/01/11 10:15:36;;;;;;;2.38;0.63;;;9.40;47.80;;;;;;5090714;28;20044;-82
2023/01/11 10:18:21;;;;;;;1.33;0.77;;;9.40;50.80;;;;;;5055267;28;20049;-80
2023/01/11 10:20:53;;;;;;;2.60;1.05;;;9.40;55.10;;;;;;5051687;28;20052;-78
2023/01/11 10:23:32;;;;;;;2.85;0.70;;;9.30;58.20;;;;;;5034403;28;20033;-80
2023/01/11 10:26:03;;;;;;;2.20;1.23;;;9.40;59.90;;;;;;5034256;28;20390;-85
2023/01/11 10:28:41;;;;;;;2.70;0.80;;;9.40;64.80;;;;;;5070308;28;20066;-79
2023/01/11 10:31:28;;;;;;;3.75;0.95;;;9.40;67.20;;;;;;5063535;28;20033;-79
2023/01/11 10:40:30;;;;;;;3.97;1.05;;;9.50;84.10;;;;;;5053737;28;20040;-83
2023/01/11 10:43:21;;;;;;;5.47;0.98;;;9.50;90.20;;;;;;5064494;28;20041;-80
2023/01/11 10:45:56;;;;;;;;;;;9.50;92.40;;;;;;5046472;28;20036;-81
2023/01/11 10:48:32;;;;;;;4.25;1.63;;;9.50;93.80;;;;;;5053521;28;20233;-79
2023/01/11 10:51:09;;;;;;;4.93;1.52;;;9.60;96.10;;;;;;5070763;28;20039;-83
2023/01/11 10:53:38;;;;;;;3.70;1.95;;;9.50;95.20;;;;;;5071335;28;20033;-79
2023/01/11 10:56:10;;;;;;;3.08;1.48;;;9.60;97.20;;;;;;5052937;28;20488;-80
2023/01/11 10:58:45;;;;;;;3.67;1.60;;;9.60;96.10;;;;;;5039546;28;20042;-80
2023/01/11 11:01:33;;;;;;;2.42;1.27;;;9.60;98.90;;;;;;5047615;28;20037;-81
2023/01/11 11:04:14;;;;;;;5.78;1.65;;;9.60;99.90;;;;;;5071990;28;20043;-83
2023/01/11 11:06:58;;;;;;;4.50;1.80;;;9.60;99.90;;;;;;5059074;28;20381;-79
2023/01/11 11:10:02;;;;;;;5.78;2.08;;;9.60;99.90;;;;;;5061991;28;20032;-79
2023/01/11 11:12:33;;;;;;;4.47;2.35;;;9.80;99.90;;;;;;4985770;28;20067;-81
2023/01/11 11:15:26;;;;;;;3.20;1.63;;;9.80;99.90;;;;;;5062508;28;20036;-85
2023/01/11 11:17:53;;;;;;;4.65;1.88;;;9.80;99.90;;;;;;5058515;28;20041;-78
2023/01/11 11:20:28;;;;;;;3.97;1.75;;;9.90;99.90;;;;;;5068433;28;20237;-79
2023/01/11 11:22:57;;;;;;;6.32;1.10;;;9.90;99.90;;;;;;5056640;28;20378;-79
2023/01/11 11:25:33;;;;;;;2.45;1.08;;;10.00;99.90;;;;;;5077398;28;20036;-79
2023/01/11 11:28:22;;;;;;;3.53;1.27;;;10.00;97.30;;;;;;5075511;28;20032;-77
2023/01/11 11:30:57;;;;;;;4.93;1.25;;;10.10;99.90;;;;;;5050734;28;20045;-78
2023/01/11 11:33:39;;;;;;;2.95;0.90;;;10.30;99.90;;;;;;5073852;28;20458;-78
2023/01/11 11:36:10;;;;;;;1.52;0.98;;;10.30;92.00;;;;;;5055450;28;20037;-79
2023/01/11 11:39:04;;;;;;;3.95;0.90;;;10.30;78.10;;;;;;5073143;28;20028;-77
2023/01/11 11:41:48;;;;;;;4.85;0.93;;;10.40;74.60;;;;;;5028013;28;20048;-77
2023/01/11 11:44:20;;;;;;;3.72;1.00;;;10.40;73.00;;;;;;5051098;28;20056;-78
2023/01/11 11:47:12;;;;;;;2.50;0.85;;;10.30;59.70;;;;;;5066392;28;20469;-79
2023/01/11 11:49:39;;;;;;;2.05;0.77;;;10.30;61.20;;;;;;5055487;28;20037;-78
2023/01/11 11:52:10;;;;;;;2.45;1.20;;;10.20;63.90;;;;;;5053994;28;20025;-79
2023/01/11 11:54:42;;;;;;;;;;;10.20;65.50;;;;;;5056462;28;20033;-80
2023/01/11 11:57:21;;;;;;;2.00;0.77;;;10.20;64.10;;;;;;5061814;28;19908;-78
2023/01/11 11:59:51;;;;;;;3.63;1.45;;;10.20;65.80;;;;;;5037457;28;20035;-77
2023/01/11 12:02:30;;;;;;;1.70;1.00;;;10.20;68.90;;;;;;5056815;28;20044;-77
2023/01/11 12:04:59;;;;;;;4.45;1.23;;;10.30;69.40;;;;;;5065004;28;20029;-78
2023/01/11 12:07:35;;;;;;;1.90;1.15;;;10.30;63.20;;;;;;5065082;28;20047;-78
2023/01/11 12:10:11;;;;;;;3.72;1.38;;;10.40;61.90;;;;;;5044449;28;20049;-86
2023/01/11 12:12:58;;;;;;;3.97;1.35;;;10.40;54.30;;;;;;5070780;28;20029;-77
2023/01/11 12:15:26;;;;;;;2.90;1.30;;;10.40;50.70;;;;;;5061275;28;20036;-77
2023/01/11 12:17:53;;;;;;;3.40;1.25;;;10.50;45.50;;;;;;5062295;28;20055;-78
2023/01/11 12:20:22;;;;;;;3.22;1.30;;;10.40;45.00;;;;;;5058531;28;20519;-77
2023/01/11 12:23:06;;;;;;;3.35;1.23;;;10.40;45.80;;;;;;5062670;28;20036;-78
2023/01/11 12:25:41;;;;;;;2.10;1.25;;;10.40;50.80;;;;;;5058353;28;20025;-79
2023/01/11 12:28:27;;;;;;;3.08;1.35;;;10.40;47.70;;;;;;5046874;28;20036;-78
2023/01/11 12:31:14;;;;;;;2.38;0.93;;;10.40;43.30;;;;;;5035631;28;20037;-78
2023/01/11 12:34:15;;;;;;;2.63;0.90;;;10.30;45.10;;;;;;5057118;28;20036;-78
2023/01/11 12:36:49;;;;;;;4.65;2.10;;;10.30;49.70;;;;;;5054704;28;20041;-77
2023/01/11 12:39:43;;;;;;;20.92;8.95;;;10.30;53.30;;;;;;5049586;28;20044;-79
2023/01/11 12:42:37;;;;;;;4.65;2.15;;;10.30;56.80;;;;;;5069136;28;20037;-78
2023/01/11 12:45:22;;;;;;;3.90;1.20;;;10.20;57.20;;;;;;5061276;28;20382;-85
2023/01/11 12:48:13;;;;;;;4.50;2.15;;;10.20;63.80;;;;;;5070273;28;20036;-78
2023/01/11 12:51:10;;;;;;;1.83;0.80;;;10.20;60.00;;;;;;5072386;28;20045;-78
2023/01/11 12:53:48;;;;;;;2.83;1.08;;;10.30;58.50;;;;;;5063535;28;20040;-77
2023/01/11 12:56:31;;;;;;;2.47;0.93;;;10.20;57.70;;;;;;5068849;28;20040;-78
2023/01/11 12:59:21;;;;;;;5.80;1.90;;;10.20;57.80;;;;;;5060616;28;20036;-77
2023/01/11 13:02:06;;;;;;;3.15;1.48;;;10.30;53.10;;;;;;5035313;28;20045;-77
2023/01/11 13:05:11;;;;;;;2.00;1.00;;;10.30;53.70;;;;;;5064910;28;20032;-78
2023/01/11 13:08:02;;;;;;;2.42;1.30;;;10.30;46.20;;;;;;5045436;28;20067;-77
2023/01/11 13:10:51;;;;;;;1.80;0.77;;;10.30;34.20;;;;;;5066013;28;20041;-77
2023/01/11 13:13:31;;;;;;;2.33;1.27;;;10.30;26.30;;;;;;5055450;28;20040;-77
2023/01/11 13:16:13;;;;;;;1.98;1.25;;;10.30;25.00;;;;;;5042313;28;20036;-78
2023/01/11 13:18:46;;;;;;;2.60;0.65;;;10.40;15.90;;;;;;5060589;28;20474;-77
2023/01/11 13:21:35;;;;;;;2.35;0.73;;;10.40;4.80;;;;;;5071572;28;20052;-77
2023/01/11 13:24:11;;;;;;;3.20;0.90;;;10.40;1.10;;;;;;5058866;28;20048;-77
2023/01/11 13:26:41;;;;;;;2.65;0.77;;;10.50;1.00;;;;;;5038832;28;20425;-78
2023/01/11 13:29:42;;;;;;;1.90;0.50;;;10.50;1.00;;;;;;5072713;28;20040;-78
2023/01/11 13:32:23;;;;;;;3.80;0.80;;;10.40;1.00;;;;;;5013213;28;20048;-78
2023/01/11 13:35:14;;;;;;;1.45;0.98;;;10.40;1.00;;;;;;5051144;28;20032;-78
2023/01/11 13:37:53;;;;;;;1.70;1.10;;;10.50;1.00;;;;;;5067709;28;20025;-78
2023/01/11 13:40:40;;;;;;;3.05;0.80;;;10.40;1.00;;;;;;5058529;28;20037;-78
2023/01/11 13:43:10;;;;;;;1.75;0.57;;;10.50;1.00;;;;;;5053194;28;20037;-83
2023/01/11 13:45:47;;;;;;;3.90;0.82;;;10.60;1.00;;;;;;5037451;28;20044;-76
2023/01/11 13:48:17;;;;;;;3.38;1.00;;;10.60;1.00;;;;;;5069678;28;20033;-78
2023/01/11 13:50:53;;;;;;;4.25;0.73;;;10.70;1.00;;;;;;5061360;28;20036;-78
2023/01/11 13:53:35;;;;;;;4.68;0.80;;;10.70;1.00;;;;;;5062732;28;20044;-77
2023/01/11 13:56:40;;;;;;;1.70;0.75;;;10.80;1.00;;;;;;5074851;28;20040;-78
2023/01/11 13:59:19;;;;;;;2.47;0.52;;;10.80;1.00;;;;;;5067256;28;20052;-87
2023/01/11 14:02:22;;;;;;;3.17;1.45;;;10.80;1.00;;;;;;5060220;28;20047;-77
2023/01/11 14:04:51;;;;;;;3.70;0.88;;;10.80;1.00;;;;;;5051173;28;20040;-79
2023/01/11 14:07:26;;;;;;;0.82;0.50;;;10.80;1.00;;;;;;5053878;28;20047;-79
2023/01/11 14:10:25;;;;;;;0.90;0.70;;;10.80;1.00;;;;;;5072864;28;20047;-80
2023/01/11 14:16:32;;;;;;;2.50;1.33;;;10.70;1.00;;;;;;5071137;28;20083;-76